createdAt,value
2022-09-30T00:02:00.070Z,73.71
2022-09-30T00:04:31.951Z,73.80
2022-09-30T00:07:03.950Z,73.71
2022-09-30T00:09:36.152Z,73.67
2022-09-30T00:12:08.766Z,73.63
2022-09-30T00:14:40.605Z,73.65
2022-09-30T00:17:12.556Z,73.64
2022-09-30T00:19:44.465Z,73.78
2022-09-30T00:22:16.362Z,73.93
2022-09-30T00:24:48.369Z,73.94
2022-09-30T00:27:20.762Z,74.02
2022-09-30T00:29:52.574Z,73.98
2022-09-30T00:32:24.492Z,73.87
2022-09-30T00:34:56.291Z,73.78
2022-09-30T00:37:28.118Z,73.80
2022-09-30T00:39:59.923Z,73.85
2022-09-30T00:42:31.855Z,73.95
2022-09-30T00:45:10.693Z,74.01
2022-09-30T00:47:54.550Z,73.92
2022-09-30T00:50:37.613Z,73.88
2022-09-30T00:53:15.188Z,73.96
2022-09-30T00:55:59.786Z,73.87
2022-09-30T00:58:37.246Z,73.68
2022-09-30T01:01:10.227Z,73.62
2022-09-30T01:03:46.237Z,73.49
2022-09-30T01:06:18.199Z,73.59
2022-09-30T01:08:50.464Z,73.62
2022-09-30T01:11:22.645Z,73.66
2022-09-30T01:13:58.834Z,73.65
2022-09-30T01:16:43.999Z,73.87
2022-09-30T01:19:34.040Z,73.67
2022-09-30T01:22:27.843Z,73.47
2022-09-30T01:25:26.383Z,73.48
2022-09-30T01:28:34.865Z,73.49
2022-09-30T01:31:22.385Z,73.71
2022-09-30T01:34:05.012Z,73.77
2022-09-30T01:36:56.702Z,73.66
2022-09-30T01:39:37.839Z,73.85
2022-09-30T01:42:16.368Z,73.66
2022-09-30T01:44:55.927Z,73.67
2022-09-30T01:47:32.508Z,73.57
2022-09-30T01:50:08.827Z,73.45
2022-09-30T01:52:47.439Z,73.45
2022-09-30T01:55:23.900Z,73.60
2022-09-30T01:58:02.905Z,73.62
2022-09-30T02:00:38.046Z,73.65
2022-09-30T02:03:14.392Z,73.68
2022-09-30T02:05:53.576Z,73.80
2022-09-30T02:08:30.394Z,73.61
2022-09-30T02:11:07.170Z,73.64
2022-09-30T02:13:46.850Z,73.68
2022-09-30T02:16:23.718Z,73.93
2022-09-30T02:18:59.423Z,73.85
2022-09-30T02:21:38.097Z,73.85
2022-09-30T02:24:14.000Z,73.95
2022-09-30T02:26:49.226Z,74.07
2022-09-30T02:29:26.080Z,73.91
2022-09-30T02:32:06.274Z,73.85
2022-09-30T02:34:41.937Z,73.73
2022-09-30T02:37:18.476Z,73.67
2022-09-30T02:39:55.329Z,73.79
2022-09-30T02:42:30.309Z,73.83
2022-09-30T02:45:08.005Z,73.94
2022-09-30T02:47:51.699Z,74.13
2022-09-30T02:50:32.718Z,73.93
2022-09-30T02:53:17.315Z,74.03
2022-09-30T02:56:12.804Z,74.19
2022-09-30T02:58:46.678Z,73.89
2022-09-30T03:01:19.594Z,73.63
2022-09-30T03:03:54.790Z,73.73
2022-09-30T03:06:27.265Z,73.90
2022-09-30T03:08:59.220Z,73.95
2022-09-30T03:11:32.349Z,73.91
2022-09-30T03:14:42.413Z,73.91
2022-09-30T03:17:41.094Z,73.73
2022-09-30T03:20:21.044Z,73.89
2022-09-30T03:23:19.556Z,73.86
2022-09-30T03:25:59.602Z,73.50
2022-09-30T03:28:36.752Z,73.60
2022-09-30T03:31:27.050Z,73.70
2022-09-30T03:34:08.887Z,73.60
2022-09-30T03:36:45.436Z,73.74
2022-09-30T03:39:24.386Z,73.67
2022-09-30T03:42:00.621Z,73.62
2022-09-30T03:44:38.209Z,73.69
2022-09-30T03:47:13.771Z,73.60
2022-09-30T03:49:52.270Z,73.67
2022-09-30T03:52:27.291Z,73.73
2022-09-30T03:54:59.020Z,73.38
2022-09-30T03:57:31.859Z,73.49
2022-09-30T04:00:05.631Z,73.57
2022-09-30T04:02:37.807Z,73.45
2022-09-30T04:05:10.790Z,73.63
2022-09-30T04:07:42.688Z,73.55
2022-09-30T04:10:15.215Z,73.33
2022-09-30T04:12:47.085Z,73.46
2022-09-30T04:15:19.057Z,73.51
2022-09-30T04:17:50.890Z,73.56
2022-09-30T04:20:22.989Z,73.73
2022-09-30T04:22:54.923Z,73.44
2022-09-30T04:25:27.181Z,73.49
2022-09-30T04:27:59.290Z,73.53
2022-09-30T04:30:33.524Z,73.44
2022-09-30T04:33:05.947Z,73.57
2022-09-30T04:35:39.349Z,73.64
2022-09-30T04:38:11.291Z,73.68
2022-09-30T04:40:43.190Z,73.76
2022-09-30T04:43:15.217Z,73.81
2022-09-30T04:45:47.959Z,73.82
2022-09-30T04:48:20.080Z,73.61
2022-09-30T04:50:52.559Z,73.32
2022-09-30T04:53:24.624Z,73.38
2022-09-30T04:56:01.550Z,73.37
2022-09-30T04:58:37.024Z,73.45
2022-09-30T05:01:11.705Z,73.54
2022-09-30T05:03:44.583Z,73.50
2022-09-30T05:06:16.690Z,73.58
2022-09-30T05:08:48.624Z,73.51
2022-09-30T05:11:23.045Z,73.67
2022-09-30T05:13:55.404Z,73.56
2022-09-30T05:16:28.141Z,73.34
2022-09-30T05:19:00.225Z,73.31
2022-09-30T05:21:32.069Z,73.47
2022-09-30T05:24:04.268Z,73.42
2022-09-30T05:26:36.197Z,73.53
2022-09-30T05:29:08.163Z,73.62
2022-09-30T05:31:40.171Z,73.64
2022-09-30T05:34:12.179Z,73.65
2022-09-30T05:36:44.860Z,73.67
2022-09-30T05:39:16.838Z,73.73
2022-09-30T05:41:49.383Z,73.52
2022-09-30T05:44:21.670Z,73.48
2022-09-30T05:46:53.603Z,73.62
2022-09-30T05:49:26.442Z,73.39
2022-09-30T05:51:58.251Z,73.45
2022-09-30T05:54:30.093Z,73.62
2022-09-30T05:57:02.259Z,73.62
2022-09-30T05:59:34.338Z,73.83
2022-09-30T06:02:06.590Z,73.76
2022-09-30T06:04:38.546Z,73.82
2022-09-30T06:07:10.754Z,73.82
2022-09-30T06:09:42.856Z,73.75
2022-09-30T06:12:14.777Z,73.56
2022-09-30T06:14:46.643Z,73.57
2022-09-30T06:17:18.767Z,73.60
2022-09-30T06:19:50.965Z,73.81
2022-09-30T06:22:22.796Z,73.83
2022-09-30T06:24:55.429Z,74.01
2022-09-30T06:27:28.354Z,73.95
2022-09-30T06:30:00.672Z,73.99
2022-09-30T06:32:32.537Z,74.09
2022-09-30T06:35:04.468Z,73.98
2022-09-30T06:37:37.953Z,74.02
2022-09-30T06:40:11.884Z,73.94
2022-09-30T06:42:43.821Z,74.17
2022-09-30T06:45:28.245Z,74.21
2022-09-30T06:48:05.535Z,74.43
2022-09-30T06:50:39.436Z,74.68
2022-09-30T06:53:12.245Z,74.76
2022-09-30T06:55:44.103Z,74.90
2022-09-30T06:58:18.182Z,75.00
2022-09-30T07:00:59.834Z,75.12
2022-09-30T07:03:34.810Z,75.17
2022-09-30T07:06:06.158Z,75.36
2022-09-30T07:08:39.164Z,75.56
2022-09-30T07:11:14.762Z,75.71
2022-09-30T07:13:47.549Z,75.87
2022-09-30T07:16:21.535Z,75.98
2022-09-30T07:18:54.035Z,76.27
2022-09-30T07:21:25.875Z,76.46
2022-09-30T07:23:59.010Z,76.59
2022-09-30T07:26:31.267Z,76.50
2022-09-30T07:29:03.140Z,76.20
2022-09-30T07:31:36.064Z,76.28
2022-09-30T07:34:09.936Z,76.36
2022-09-30T07:36:45.649Z,76.45
2022-09-30T07:39:17.451Z,76.59
2022-09-30T07:41:49.444Z,76.80
2022-09-30T07:44:21.622Z,77.05
2022-09-30T07:46:53.916Z,77.13
2022-09-30T07:49:25.919Z,77.11
2022-09-30T07:51:59.872Z,77.17
2022-09-30T07:54:37.365Z,77.09
2022-09-30T07:57:12.580Z,77.25
2022-09-30T07:59:45.147Z,77.12
2022-09-30T08:02:20.150Z,77.03
2022-09-30T08:04:52.130Z,77.00
2022-09-30T08:07:23.948Z,77.21
2022-09-30T08:09:55.799Z,76.98
2022-09-30T08:12:27.654Z,77.01
2022-09-30T08:14:59.459Z,77.21
2022-09-30T08:17:31.266Z,76.95
2022-09-30T08:20:03.541Z,77.01
2022-09-30T08:22:35.452Z,77.04
2022-09-30T08:25:08.723Z,77.09
2022-09-30T08:27:40.618Z,77.25
2022-09-30T08:30:14.747Z,77.52
2022-09-30T08:32:46.619Z,77.65
2022-09-30T08:35:18.626Z,77.56
2022-09-30T08:37:51.700Z,77.12
2022-09-30T08:40:27.426Z,77.01
2022-09-30T08:43:12.059Z,76.29
2022-09-30T08:45:53.952Z,76.29
2022-09-30T08:48:40.392Z,75.94
2022-09-30T08:51:29.267Z,75.47
2022-09-30T08:54:03.965Z,75.44
2022-09-30T08:56:37.644Z,75.05
2022-09-30T08:59:22.792Z,75.29
2022-09-30T09:01:59.971Z,75.14
2022-09-30T09:04:32.064Z,75.44
2022-09-30T09:07:11.763Z,75.41
2022-09-30T09:09:57.855Z,75.10
2022-09-30T09:12:42.756Z,74.76
2022-09-30T09:15:26.562Z,74.65
2022-09-30T09:18:23.642Z,74.59
2022-09-30T09:21:00.054Z,74.67
2022-09-30T09:23:34.481Z,74.60
2022-09-30T09:26:07.928Z,74.18
2022-09-30T09:28:49.156Z,74.02
2022-09-30T09:31:24.566Z,73.31
2022-09-30T09:34:02.317Z,73.61
2022-09-30T09:36:47.665Z,73.60
2022-09-30T09:39:41.023Z,73.56
2022-09-30T09:42:30.672Z,73.48
2022-09-30T09:45:04.289Z,73.43
2022-09-30T09:47:36.192Z,73.32
2022-09-30T09:50:19.426Z,73.02
2022-09-30T09:53:26.229Z,72.96
2022-09-30T09:56:00.360Z,72.58
2022-09-30T09:58:34.875Z,72.41
2022-09-30T10:01:32.441Z,72.38
2022-09-30T10:04:15.744Z,72.20
2022-09-30T10:07:00.277Z,72.05
2022-09-30T10:09:37.611Z,71.90
2022-09-30T10:12:30.830Z,71.98
2022-09-30T10:15:20.983Z,71.80
2022-09-30T10:17:58.394Z,71.56
2022-09-30T10:20:37.523Z,71.53
2022-09-30T10:23:19.931Z,71.56
2022-09-30T10:26:05.873Z,71.23
2022-09-30T10:28:48.878Z,71.08
2022-09-30T10:31:27.200Z,70.52
2022-09-30T10:34:05.465Z,70.53
2022-09-30T10:36:40.315Z,70.25
2022-09-30T10:39:24.787Z,70.37
2022-09-30T10:42:07.460Z,70.16
2022-09-30T10:44:46.865Z,70.24
2022-09-30T10:47:22.983Z,70.25
2022-09-30T10:49:59.382Z,69.92
2022-09-30T10:52:33.629Z,69.81
2022-09-30T10:55:14.813Z,69.67
2022-09-30T10:57:52.900Z,69.48
2022-09-30T11:00:27.426Z,69.51
2022-09-30T11:03:02.929Z,69.38
2022-09-30T11:05:39.710Z,69.09
2022-09-30T11:08:19.528Z,68.64
2022-09-30T11:11:00.392Z,68.40
2022-09-30T11:13:38.813Z,68.28
2022-09-30T11:16:18.740Z,68.47
2022-09-30T11:18:55.505Z,67.83
2022-09-30T11:21:36.559Z,67.56
2022-09-30T11:24:16.814Z,67.77
2022-09-30T11:26:57.477Z,67.59
2022-09-30T11:29:50.023Z,67.40
2022-09-30T11:32:47.025Z,67.54
2022-09-30T11:35:36.861Z,67.63
2022-09-30T11:38:18.895Z,67.34
2022-09-30T11:41:02.402Z,67.15
2022-09-30T11:43:46.542Z,66.88
2022-09-30T11:46:34.323Z,67.07
2022-09-30T11:49:25.601Z,66.86
2022-09-30T11:52:08.079Z,66.57
2022-09-30T11:54:56.946Z,66.56
2022-09-30T11:57:36.376Z,66.31
2022-09-30T12:00:17.395Z,66.10
2022-09-30T12:02:52.467Z,65.80
2022-09-30T12:05:28.726Z,65.96
2022-09-30T12:08:10.499Z,65.51
2022-09-30T12:10:48.356Z,65.35
2022-09-30T12:13:25.162Z,65.43
2022-09-30T12:16:00.019Z,65.43
2022-09-30T12:18:39.481Z,65.03
2022-09-30T12:21:22.980Z,65.10
2022-09-30T12:24:00.612Z,64.93
2022-09-30T12:26:33.187Z,64.86
2022-09-30T12:29:27.212Z,64.56
2022-09-30T12:32:36.274Z,64.61
2022-09-30T12:35:38.352Z,64.90
2022-09-30T12:38:24.488Z,64.66
2022-09-30T12:41:04.022Z,64.60
2022-09-30T12:44:03.532Z,64.49
2022-09-30T12:47:09.937Z,64.37
2022-09-30T12:49:42.899Z,64.09
2022-09-30T12:52:20.958Z,63.93
2022-09-30T12:54:57.035Z,63.90
2022-09-30T12:57:33.212Z,63.63
2022-09-30T13:00:14.910Z,63.56
2022-09-30T13:02:50.710Z,63.39
2022-09-30T13:05:59.407Z,63.20
2022-09-30T13:08:49.444Z,62.94
2022-09-30T13:11:39.160Z,62.83
2022-09-30T13:14:32.996Z,62.82
2022-09-30T13:17:27.748Z,62.84
2022-09-30T13:19:59.558Z,62.69
2022-09-30T13:22:45.344Z,62.77
2022-09-30T13:25:18.480Z,62.72
2022-09-30T13:27:54.099Z,62.71
2022-09-30T13:30:41.452Z,62.53
2022-09-30T13:33:43.750Z,62.46
2022-09-30T13:36:30.803Z,62.51
2022-09-30T13:39:22.678Z,62.56
2022-09-30T13:42:14.056Z,62.57
2022-09-30T13:45:01.256Z,62.65
2022-09-30T13:47:40.418Z,62.54
2022-09-30T13:50:19.203Z,62.59
2022-09-30T13:52:55.551Z,62.55
2022-09-30T13:55:33.483Z,62.54
2022-09-30T13:58:24.767Z,62.38
2022-09-30T14:01:07.371Z,62.50
2022-09-30T14:03:54.388Z,62.37
2022-09-30T14:06:37.039Z,62.06
2022-09-30T14:09:26.372Z,62.03
2022-09-30T14:12:12.461Z,62.17
2022-09-30T14:15:04.313Z,62.06
2022-09-30T14:17:52.162Z,61.94
2022-09-30T14:20:36.793Z,62.00
2022-09-30T14:23:15.891Z,61.82
2022-09-30T14:26:05.754Z,61.91
2022-09-30T14:28:42.840Z,61.94
2022-09-30T14:31:16.409Z,62.01
2022-09-30T14:33:52.174Z,61.93
2022-09-30T14:36:25.428Z,61.90
2022-09-30T14:39:03.755Z,61.85
2022-09-30T14:41:35.856Z,61.79
2022-09-30T14:44:08.816Z,61.75
2022-09-30T14:46:47.229Z,61.66
2022-09-30T14:49:24.226Z,61.66
2022-09-30T14:51:56.172Z,61.62
2022-09-30T14:54:30.010Z,61.67
2022-09-30T14:57:04.311Z,61.69
2022-09-30T14:59:40.961Z,61.76
2022-09-30T15:02:20.427Z,61.68
2022-09-30T15:04:58.108Z,61.72
2022-09-30T15:07:33.500Z,61.67
2022-09-30T15:10:06.022Z,61.60
2022-09-30T15:12:38.886Z,61.67
2022-09-30T15:15:27.883Z,61.70
2022-09-30T15:17:59.944Z,61.80
2022-09-30T15:20:34.841Z,61.90
2022-09-30T15:23:17.461Z,61.87
2022-09-30T15:25:49.690Z,61.92
2022-09-30T15:28:21.683Z,61.94
2022-09-30T15:30:57.677Z,62.06
2022-09-30T15:33:32.491Z,62.02
2022-09-30T15:36:08.548Z,61.88
2022-09-30T15:38:40.746Z,62.03
2022-09-30T15:41:13.655Z,62.07
2022-09-30T15:43:50.872Z,62.16
2022-09-30T15:46:33.921Z,62.19
2022-09-30T15:49:29.159Z,62.18
2022-09-30T15:52:29.539Z,62.28
2022-09-30T15:55:01.464Z,62.28
2022-09-30T15:57:48.098Z,62.39
2022-09-30T16:00:38.960Z,62.43
2022-09-30T16:03:27.632Z,62.46
2022-09-30T16:06:11.043Z,62.58
2022-09-30T16:08:45.794Z,62.70
2022-09-30T16:11:24.838Z,62.67
2022-09-30T16:13:58.148Z,62.80
2022-09-30T16:16:34.675Z,62.73
2022-09-30T16:19:07.626Z,62.99
2022-09-30T16:21:45.502Z,63.02
2022-09-30T16:24:44.934Z,63.07
2022-09-30T16:27:26.167Z,63.00
2022-09-30T16:29:59.046Z,63.11
2022-09-30T16:32:41.152Z,63.14
2022-09-30T16:35:20.823Z,63.20
2022-09-30T16:37:59.142Z,63.21
2022-09-30T16:40:32.787Z,63.38
2022-09-30T16:43:07.590Z,63.50
2022-09-30T16:45:41.700Z,63.38
2022-09-30T16:48:17.997Z,63.45
2022-09-30T16:51:03.543Z,63.46
2022-09-30T16:53:35.472Z,63.52
2022-09-30T16:56:08.095Z,63.50
2022-09-30T16:58:39.945Z,63.46
2022-09-30T17:01:19.725Z,63.61
2022-09-30T17:03:53.483Z,63.81
2022-09-30T17:06:30.279Z,63.87
2022-09-30T17:09:02.821Z,63.97
2022-09-30T17:11:38.104Z,64.06
2022-09-30T17:14:10.059Z,64.24
2022-09-30T17:16:41.995Z,64.27
2022-09-30T17:19:14.226Z,64.28
2022-09-30T17:21:46.129Z,64.12
2022-09-30T17:24:18.001Z,64.27
2022-09-30T17:26:50.996Z,64.41
2022-09-30T17:29:41.714Z,64.38
2022-09-30T17:32:14.106Z,64.63
2022-09-30T17:34:46.050Z,64.60
2022-09-30T17:37:19.066Z,64.64
2022-09-30T17:39:50.925Z,64.64
2022-09-30T17:42:42.014Z,64.69
2022-09-30T17:45:14.245Z,64.86
2022-09-30T17:47:46.223Z,64.68
2022-09-30T17:50:22.099Z,64.83
2022-09-30T17:52:56.075Z,64.76
2022-09-30T17:55:29.110Z,64.94
2022-09-30T17:58:08.299Z,64.89
2022-09-30T18:00:40.687Z,65.06
2022-09-30T18:03:12.731Z,64.99
2022-09-30T18:05:45.624Z,65.05
2022-09-30T18:08:19.066Z,65.18
2022-09-30T18:10:52.217Z,65.15
2022-09-30T18:13:24.180Z,65.30
2022-09-30T18:15:59.706Z,65.23
2022-09-30T18:18:32.068Z,65.36
2022-09-30T18:21:03.963Z,65.62
2022-09-30T18:23:35.829Z,65.60
2022-09-30T18:26:07.926Z,65.55
2022-09-30T18:28:39.918Z,65.72
2022-09-30T18:31:11.817Z,65.81
2022-09-30T18:33:43.693Z,65.65
2022-09-30T18:36:15.563Z,65.59
2022-09-30T18:38:47.450Z,65.78
2022-09-30T18:41:19.478Z,65.81
2022-09-30T18:43:59.584Z,65.72
2022-09-30T18:46:32.246Z,65.87
2022-09-30T18:49:04.679Z,65.79
2022-09-30T18:51:36.741Z,65.79
2022-09-30T18:54:08.919Z,65.85
2022-09-30T18:56:40.767Z,65.80
2022-09-30T18:59:18.257Z,65.89
2022-09-30T19:01:52.615Z,65.95
2022-09-30T19:04:24.505Z,66.14
2022-09-30T19:06:56.358Z,66.22
2022-09-30T19:09:28.477Z,66.14
2022-09-30T19:12:01.816Z,66.26
2022-09-30T19:14:34.547Z,66.25
2022-09-30T19:17:06.412Z,66.28
2022-09-30T19:19:41.393Z,66.35
2022-09-30T19:22:14.338Z,66.33
2022-09-30T19:24:46.298Z,66.28
2022-09-30T19:27:22.587Z,66.27
2022-09-30T19:29:59.118Z,66.54
2022-09-30T19:32:35.299Z,66.36
2022-09-30T19:35:10.520Z,66.70
2022-09-30T19:37:55.741Z,66.47
2022-09-30T19:43:09.722Z,66.47
2022-09-30T19:45:41.632Z,66.49
2022-09-30T19:48:13.519Z,66.60
2022-09-30T19:50:45.623Z,66.71
2022-09-30T19:53:27.925Z,66.59
2022-09-30T19:56:07.997Z,66.94
2022-09-30T19:58:40.661Z,66.86
2022-09-30T20:01:13.768Z,66.81
2022-09-30T20:03:45.836Z,66.80
2022-09-30T20:06:18.961Z,66.82
2022-09-30T20:08:54.674Z,66.98
2022-09-30T20:11:27.370Z,67.13
2022-09-30T20:14:14.277Z,67.28
2022-09-30T20:16:47.730Z,67.04
2022-09-30T20:19:20.623Z,67.19
2022-09-30T20:21:54.028Z,67.23
2022-09-30T20:24:26.165Z,67.13
2022-09-30T20:26:58.104Z,67.10
2022-09-30T20:29:30.498Z,67.21
2022-09-30T20:32:02.698Z,67.31
2022-09-30T20:34:38.655Z,67.36
2022-09-30T20:37:11.342Z,67.34
2022-09-30T20:39:43.323Z,67.51
2022-09-30T20:42:15.323Z,67.44
2022-09-30T20:44:47.209Z,67.33
2022-09-30T20:47:19.528Z,67.44
2022-09-30T20:49:51.408Z,67.67
2022-09-30T20:52:23.391Z,67.50
2022-09-30T20:54:57.062Z,67.57
2022-09-30T20:57:30.381Z,67.56
2022-09-30T21:00:02.729Z,67.46
2022-09-30T21:02:34.779Z,67.61
2022-09-30T21:05:09.325Z,67.59
2022-09-30T21:07:41.554Z,67.66
2022-09-30T21:10:13.671Z,67.72
2022-09-30T21:12:46.396Z,67.74
2022-09-30T21:15:19.214Z,67.65
2022-09-30T21:17:52.898Z,67.56
2022-09-30T21:20:25.174Z,67.65
2022-09-30T21:22:57.205Z,67.67
2022-09-30T21:25:29.238Z,67.79
2022-09-30T21:28:01.506Z,67.98
2022-09-30T21:30:33.977Z,67.88
2022-09-30T21:33:06.589Z,67.99
2022-09-30T21:35:38.496Z,68.00
2022-09-30T21:38:10.423Z,67.91
2022-09-30T21:40:42.412Z,68.02
2022-09-30T21:43:15.052Z,68.04
2022-09-30T21:45:47.190Z,67.98
2022-09-30T21:48:21.065Z,68.02
2022-09-30T21:50:53.355Z,68.13
2022-09-30T21:53:27.376Z,68.22
2022-09-30T21:56:01.125Z,68.11
2022-09-30T21:58:36.386Z,68.21
2022-09-30T22:01:09.491Z,68.33
2022-09-30T22:03:41.711Z,68.20
2022-09-30T22:06:14.632Z,68.28
2022-09-30T22:08:46.730Z,68.14
2022-09-30T22:11:22.622Z,68.18
2022-09-30T22:13:56.279Z,68.29
2022-09-30T22:16:31.187Z,68.32
2022-09-30T22:19:05.653Z,68.49
2022-09-30T22:21:38.394Z,68.47
2022-09-30T22:24:10.763Z,68.55
2022-09-30T22:26:44.670Z,68.56
2022-09-30T22:29:16.659Z,68.47
2022-09-30T22:31:48.662Z,68.41
2022-09-30T22:34:38.498Z,68.38
2022-09-30T22:37:28.881Z,68.76
2022-09-30T22:40:01.142Z,68.77
2022-09-30T22:42:35.775Z,68.94
2022-09-30T22:45:09.213Z,68.93
2022-09-30T22:47:41.648Z,68.81
2022-09-30T22:50:14.071Z,68.82
2022-09-30T22:52:46.539Z,68.74
2022-09-30T22:55:18.414Z,68.94
2022-09-30T22:57:50.272Z,68.99
2022-09-30T23:00:22.238Z,69.03
2022-09-30T23:02:55.571Z,69.20
2022-09-30T23:05:27.859Z,69.20
2022-09-30T23:07:59.737Z,69.23
2022-09-30T23:10:31.631Z,69.23
2022-09-30T23:13:03.532Z,69.18
2022-09-30T23:15:35.664Z,69.12
2022-09-30T23:18:07.661Z,69.39
2022-09-30T23:20:41.014Z,69.39
2022-09-30T23:23:12.909Z,69.43
2022-09-30T23:25:44.966Z,69.43
2022-09-30T23:28:16.850Z,69.45
2022-09-30T23:30:48.763Z,69.49
2022-09-30T23:33:20.685Z,69.55
2022-09-30T23:35:52.578Z,69.44
2022-09-30T23:38:27.750Z,69.36
2022-09-30T23:41:00.151Z,69.43
2022-09-30T23:43:34.238Z,69.42
2022-09-30T23:46:07.456Z,69.48
2022-09-30T23:48:39.533Z,69.64
2022-09-30T23:51:11.617Z,69.78
2022-09-30T23:53:43.653Z,69.70
2022-09-30T23:56:17.697Z,69.88
2022-09-30T23:58:50.584Z,69.77
